Time;durP1;ratioP1;P1;durP2;ratioP2;P2;SDS_P1;SDS_P2;PMS_P1;PMS_P2;Temp;Humidity;BMP_temperature;BMP_pressure;BME280_temperature;BME280_humidity;BME280_pressure;Samples;Min_cycle;Max_cycle;Signal;HPM_P1;HPM_P2
2022/05/17 00:00:02;;;;;;;6.00;1.60;;;17.60;99.90;;;;;;5059911;28;20262;-79
2022/05/17 00:02:33;;;;;;;4.63;1.35;;;17.70;99.90;;;;;;5055530;28;20228;-82
2022/05/17 00:05:05;;;;;;;0.98;0.60;;;17.80;99.90;;;;;;5072229;28;20193;-82
2022/05/17 00:07:36;;;;;;;17.30;10.50;;;17.80;99.90;;;;;;5062403;28;20240;-79
2022/05/17 00:10:08;;;;;;;5.63;2.28;;;17.90;99.90;;;;;;5064635;28;20631;-81
2022/05/17 00:12:40;;;;;;;3.45;1.20;;;18.00;99.90;;;;;;5056163;28;20197;-79
2022/05/17 00:15:11;;;;;;;0.73;0.45;;;18.10;99.90;;;;;;5063076;28;20199;-79
2022/05/17 00:17:43;;;;;;;1.15;0.60;;;18.20;99.90;;;;;;5064580;28;20255;-78
2022/05/17 00:20:19;;;;;;;2.00;1.00;;;18.20;99.90;;;;;;5062248;28;20198;-79
2022/05/17 00:22:50;;;;;;;1.63;0.40;;;18.30;99.90;;;;;;5061235;28;20217;-80
2022/05/17 00:25:23;;;;;;;5.72;0.73;;;18.40;99.90;;;;;;5066323;28;20234;-80
2022/05/17 00:27:54;;;;;;;2.58;0.50;;;18.60;99.90;;;;;;5057027;28;20200;-81
2022/05/17 00:30:25;;;;;;;1.40;0.40;;;18.60;99.90;;;;;;5065053;28;20192;-82
2022/05/17 00:32:56;;;;;;;1.15;0.30;;;18.60;99.90;;;;;;5061638;28;20205;-82
2022/05/17 00:35:28;;;;;;;1.05;0.40;;;18.50;99.90;;;;;;5057730;28;20289;-80
2022/05/17 00:37:59;;;;;;;1.77;0.40;;;18.60;99.90;;;;;;5061615;28;20205;-84
2022/05/17 00:40:29;;;;;;;1.23;0.60;;;18.70;99.90;;;;;;5065648;28;20193;-83
2022/05/17 00:43:00;;;;;;;1.83;0.40;;;18.70;99.90;;;;;;5066646;28;20217;-81
2022/05/17 00:45:31;;;;;;;0.90;0.30;;;18.80;99.90;;;;;;5068263;28;20193;-82
2022/05/17 00:48:06;;;;;;;4.95;0.55;;;18.70;99.90;;;;;;5066943;28;20258;-84
2022/05/17 00:50:43;;;;;;;1.40;0.50;;;18.90;99.90;;;;;;5066170;28;20459;-80
2022/05/17 00:53:20;;;;;;;1.05;0.30;;;19.00;99.90;;;;;;5069752;28;20656;-80
2022/05/17 00:55:56;;;;;;;2.42;0.40;;;19.10;99.90;;;;;;5069922;28;20235;-79
2022/05/17 00:58:31;;;;;;;3.47;0.90;;;19.00;99.90;;;;;;5067932;28;20201;-80
2022/05/17 01:01:08;;;;;;;1.58;0.35;;;19.10;99.90;;;;;;5069295;28;20196;-78
2022/05/17 01:03:46;;;;;;;1.40;0.40;;;19.20;99.90;;;;;;5064343;28;20235;-78
2022/05/17 01:06:19;;;;;;;0.93;0.45;;;19.20;99.90;;;;;;5065548;28;20193;-78
2022/05/17 01:08:50;;;;;;;1.35;0.40;;;19.20;99.90;;;;;;5064933;28;20701;-83
2022/05/17 01:11:20;;;;;;;3.05;0.40;;;19.20;99.90;;;;;;5071120;28;20672;-78
2022/05/17 01:16:41;;;;;;;1.85;0.40;;;19.20;99.90;;;;;;5068429;28;20281;-77
2022/05/17 01:19:12;;;;;;;0.77;0.28;;;19.20;99.90;;;;;;5056931;28;20201;-81
2022/05/17 01:21:45;;;;;;;0.77;0.40;;;19.30;99.90;;;;;;5067151;28;20294;-79
2022/05/17 01:24:16;;;;;;;0.80;0.40;;;19.40;99.90;;;;;;5065931;28;20219;-80
2022/05/17 01:26:50;;;;;;;1.45;0.47;;;19.50;99.90;;;;;;5068504;28;20247;-80
2022/05/17 01:29:20;;;;;;;1.67;0.55;;;19.50;99.90;;;;;;5066611;28;20246;-80
2022/05/17 01:31:51;;;;;;;4.05;0.70;;;19.60;99.90;;;;;;5067396;28;20193;-80
2022/05/17 01:34:22;;;;;;;6.50;0.98;;;19.60;99.90;;;;;;5062855;28;20227;-80
2022/05/17 01:36:54;;;;;;;2.90;1.38;;;19.70;99.90;;;;;;5070571;28;20191;-87
2022/05/17 01:39:25;;;;;;;1.90;1.08;;;19.60;99.90;;;;;;5067723;28;20671;-81
2022/05/17 01:41:55;;;;;;;2.25;0.73;;;19.70;99.90;;;;;;5071282;28;20193;-81
2022/05/17 01:44:26;;;;;;;1.27;0.50;;;19.80;99.90;;;;;;5068988;28;20625;-80
2022/05/17 01:46:57;;;;;;;1.95;1.48;;;19.80;99.90;;;;;;5064784;28;20201;-83
2022/05/17 01:49:27;;;;;;;2.33;1.80;;;19.90;99.90;;;;;;5071051;28;20277;-81
2022/05/17 01:52:00;;;;;;;1.60;1.10;;;20.00;99.90;;;;;;5064136;28;20576;-85
2022/05/17 01:54:30;;;;;;;2.17;0.80;;;20.00;99.90;;;;;;5069479;28;20189;-80
2022/05/17 01:57:01;;;;;;;1.65;0.73;;;19.90;99.90;;;;;;5067882;28;20556;-81
2022/05/17 01:59:32;;;;;;;1.95;0.43;;;19.90;99.90;;;;;;5068836;28;20197;-81
2022/05/17 02:02:02;;;;;;;0.98;0.40;;;20.00;99.90;;;;;;5066961;28;20238;-79
2022/05/17 02:04:33;;;;;;;1.67;0.40;;;20.00;99.90;;;;;;5064458;28;20702;-80
2022/05/17 02:07:06;;;;;;;2.67;0.40;;;20.00;99.90;;;;;;5062305;28;20194;-80
2022/05/17 02:09:37;;;;;;;4.18;0.55;;;20.10;99.90;;;;;;5060258;28;21003;-81
2022/05/17 02:12:08;;;;;;;1.10;0.35;;;20.20;99.90;;;;;;5059583;28;20196;-82
2022/05/17 02:14:39;;;;;;;0.65;0.35;;;20.20;99.90;;;;;;5063225;28;20656;-81
2022/05/17 02:17:09;;;;;;;1.33;0.40;;;20.20;99.90;;;;;;5062642;28;20587;-81
2022/05/17 02:19:40;;;;;;;0.35;0.20;;;20.30;99.90;;;;;;5067392;28;20219;-78
2022/05/17 02:22:13;;;;;;;1.42;0.40;;;20.30;99.90;;;;;;5064535;28;20189;-81
2022/05/17 02:24:43;;;;;;;1.00;0.30;;;20.20;99.90;;;;;;5067352;28;20295;-85
2022/05/17 02:27:14;;;;;;;1.48;0.30;;;20.30;99.90;;;;;;5065826;28;20185;-79
2022/05/17 02:29:44;;;;;;;2.92;0.40;;;20.20;99.90;;;;;;5065412;28;20640;-79
2022/05/17 02:32:16;;;;;;;0.57;0.30;;;20.30;99.90;;;;;;5067351;28;20185;-82
2022/05/17 02:34:47;;;;;;;0.60;0.30;;;20.30;99.90;;;;;;5067437;28;20181;-82
2022/05/17 02:37:19;;;;;;;0.95;0.20;;;20.40;99.90;;;;;;5066842;28;20191;-82
2022/05/17 02:39:50;;;;;;;0.88;0.30;;;20.30;99.90;;;;;;5057537;28;20201;-81
2022/05/17 02:42:20;;;;;;;2.28;0.30;;;20.30;99.90;;;;;;5068485;28;20197;-81
2022/05/17 02:44:51;;;;;;;0.45;0.20;;;20.30;99.90;;;;;;5066170;28;20213;-83
2022/05/17 02:47:22;;;;;;;2.08;0.40;;;20.40;99.90;;;;;;5061138;28;20189;-80
2022/05/17 02:49:52;;;;;;;0.77;0.30;;;20.40;99.90;;;;;;5067124;28;20308;-81
2022/05/17 02:52:25;;;;;;;1.95;0.40;;;20.50;99.90;;;;;;5066835;28;20254;-82
2022/05/17 02:54:55;;;;;;;0.63;0.35;;;20.50;99.90;;;;;;5064878;28;20629;-81
2022/05/17 02:57:26;;;;;;;1.95;0.30;;;20.50;99.90;;;;;;5067178;28;20720;-82
2022/05/17 02:59:57;;;;;;;1.98;0.40;;;20.50;99.90;;;;;;5066802;28;20185;-81
2022/05/17 03:02:27;;;;;;;3.42;0.55;;;20.60;99.90;;;;;;5064065;28;20193;-78
2022/05/17 03:04:58;;;;;;;1.38;0.20;;;20.70;99.90;;;;;;5064812;28;20217;-79
2022/05/17 03:07:31;;;;;;;0.88;0.40;;;20.70;99.90;;;;;;5067811;28;20198;-80
2022/05/17 03:10:01;;;;;;;1.08;0.38;;;20.60;99.90;;;;;;5070885;28;20629;-80
2022/05/17 03:12:32;;;;;;;0.77;0.30;;;20.60;99.90;;;;;;5070949;28;20236;-79
2022/05/17 03:15:03;;;;;;;0.73;0.30;;;20.60;99.90;;;;;;5067626;28;20246;-80
2022/05/17 03:17:33;;;;;;;0.50;0.20;;;20.60;99.90;;;;;;5066556;28;20726;-79
2022/05/17 03:20:04;;;;;;;0.73;0.40;;;20.70;99.90;;;;;;5070273;28;20186;-79
2022/05/17 03:22:37;;;;;;;0.70;0.40;;;20.70;99.90;;;;;;5072387;28;20251;-79
2022/05/17 03:25:08;;;;;;;1.23;0.80;;;20.70;99.90;;;;;;5072307;28;20213;-79
2022/05/17 03:27:39;;;;;;;1.48;0.50;;;20.70;99.90;;;;;;5070838;28;20255;-80
2022/05/17 03:30:11;;;;;;;2.35;0.40;;;20.70;99.90;;;;;;5072044;28;20189;-80
2022/05/17 03:32:41;;;;;;;1.23;0.30;;;20.70;99.90;;;;;;5073518;28;20284;-79
2022/05/17 03:35:12;;;;;;;2.13;0.30;;;20.60;99.90;;;;;;5071256;28;20196;-79
2022/05/17 03:37:45;;;;;;;0.93;0.30;;;20.60;99.90;;;;;;5069236;28;20593;-79
2022/05/17 03:40:16;;;;;;;1.45;0.30;;;20.70;99.90;;;;;;5070599;28;20188;-80
2022/05/17 03:42:47;;;;;;;1.60;0.38;;;20.80;99.90;;;;;;5070303;28;20189;-80
2022/05/17 03:45:17;;;;;;;1.10;0.43;;;20.90;99.90;;;;;;5064430;28;20213;-79
2022/05/17 03:47:48;;;;;;;3.47;0.40;;;20.70;99.90;;;;;;5064860;28;20192;-80
2022/05/17 03:50:19;;;;;;;1.17;0.47;;;20.70;99.90;;;;;;5067994;28;20243;-81
2022/05/17 03:52:51;;;;;;;1.63;0.40;;;20.70;99.90;;;;;;5069148;28;20276;-80
2022/05/17 03:55:22;;;;;;;1.75;0.50;;;20.70;99.90;;;;;;5070807;28;20609;-80
2022/05/17 03:57:52;;;;;;;1.85;0.60;;;20.70;99.90;;;;;;5067027;28;20200;-79
2022/05/17 04:00:23;;;;;;;1.77;0.60;;;20.60;99.90;;;;;;5064386;28;20201;-79
2022/05/17 04:02:54;;;;;;;1.80;0.57;;;20.60;99.90;;;;;;5069324;28;20192;-80
2022/05/17 04:05:25;;;;;;;1.52;0.50;;;20.70;99.90;;;;;;5071789;28;20212;-81
2022/05/17 04:07:57;;;;;;;1.33;0.40;;;20.70;99.90;;;;;;5069565;28;20543;-80
2022/05/17 04:10:28;;;;;;;1.23;0.57;;;20.70;99.90;;;;;;5068366;28;20189;-79
2022/05/17 04:12:59;;;;;;;5.07;2.15;;;20.70;99.90;;;;;;5072896;28;20185;-79
2022/05/17 04:15:29;;;;;;;2.72;0.55;;;20.70;99.90;;;;;;5068208;28;20189;-79
2022/05/17 04:18:00;;;;;;;1.65;0.50;;;20.70;99.90;;;;;;5063472;28;20189;-80
2022/05/17 04:20:31;;;;;;;3.08;0.43;;;20.70;99.90;;;;;;5068271;28;20203;-79
2022/05/17 04:23:03;;;;;;;2.55;0.50;;;20.90;99.90;;;;;;5067652;28;20199;-79
2022/05/17 04:25:34;;;;;;;1.90;0.35;;;20.90;99.90;;;;;;5068983;28;20217;-80
2022/05/17 04:28:05;;;;;;;0.95;0.32;;;20.90;99.90;;;;;;5068844;28;20197;-79
2022/05/17 04:30:36;;;;;;;2.53;0.60;;;20.90;99.90;;;;;;5069295;28;20621;-80
2022/05/17 04:33:07;;;;;;;1.67;0.60;;;20.90;99.90;;;;;;5073465;28;20197;-79
2022/05/17 04:35:37;;;;;;;2.47;0.47;;;20.90;99.90;;;;;;5068659;28;20254;-79
2022/05/17 04:38:11;;;;;;;0.65;0.30;;;20.80;99.90;;;;;;5072257;28;20304;-79
2022/05/17 04:40:42;;;;;;;2.33;0.50;;;20.80;99.90;;;;;;5070436;28;20629;-79
2022/05/17 04:43:12;;;;;;;1.67;0.50;;;20.80;99.90;;;;;;5065004;28;20652;-78
2022/05/17 04:45:44;;;;;;;1.50;0.50;;;20.70;99.90;;;;;;5070321;28;20216;-79
2022/05/17 04:48:15;;;;;;;1.27;0.50;;;20.70;99.90;;;;;;5072455;28;20749;-79
2022/05/17 04:50:46;;;;;;;1.25;0.50;;;20.80;99.90;;;;;;5065765;28;20258;-79
2022/05/17 04:53:18;;;;;;;3.05;0.40;;;20.70;99.90;;;;;;5066089;28;20182;-79
2022/05/17 04:55:49;;;;;;;1.02;0.43;;;20.70;99.90;;;;;;5068781;28;20189;-79
2022/05/17 04:58:20;;;;;;;2.38;0.40;;;20.60;99.90;;;;;;5068675;28;20189;-79
2022/05/17 05:00:51;;;;;;;0.45;0.40;;;20.50;99.90;;;;;;5068615;28;20192;-80
2022/05/17 05:03:23;;;;;;;1.38;0.47;;;20.50;99.90;;;;;;5067309;28;20207;-79
2022/05/17 05:05:54;;;;;;;0.85;0.40;;;20.50;99.90;;;;;;5066863;28;20304;-79
2022/05/17 05:08:26;;;;;;;1.52;0.65;;;20.50;99.90;;;;;;5070416;28;20311;-80
2022/05/17 05:10:57;;;;;;;1.27;0.40;;;20.50;99.90;;;;;;5070617;28;20570;-79
2022/05/17 05:13:28;;;;;;;1.30;0.40;;;20.50;99.90;;;;;;5062095;28;20189;-79
2022/05/17 05:15:58;;;;;;;1.05;0.57;;;20.50;99.90;;;;;;5063202;28;20189;-79
2022/05/17 05:18:29;;;;;;;3.30;0.50;;;20.40;99.90;;;;;;5067024;28;20189;-79
2022/05/17 05:21:09;;;;;;;1.90;0.50;;;20.40;99.90;;;;;;5069051;28;20544;-79
2022/05/17 05:23:42;;;;;;;2.78;0.90;;;20.40;99.90;;;;;;5068411;28;20197;-79
2022/05/17 05:26:15;;;;;;;1.40;0.50;;;20.50;99.90;;;;;;5070212;28;20204;-79
2022/05/17 05:28:48;;;;;;;0.68;0.50;;;20.50;99.90;;;;;;5070121;28;20295;-80
2022/05/17 05:31:20;;;;;;;2.25;0.65;;;20.50;99.90;;;;;;5069682;28;20340;-80
2022/05/17 05:33:50;;;;;;;1.40;0.50;;;20.40;99.90;;;;;;5071579;28;20250;-79
2022/05/17 05:36:21;;;;;;;1.00;0.50;;;20.30;99.90;;;;;;5071136;28;20624;-79
2022/05/17 05:38:53;;;;;;;6.53;0.75;;;20.30;99.90;;;;;;5061123;28;20270;-79
2022/05/17 05:41:24;;;;;;;1.75;0.55;;;20.30;99.90;;;;;;5067423;28;20189;-79
2022/05/17 05:43:54;;;;;;;1.42;0.50;;;20.30;99.90;;;;;;5066920;28;20200;-80
2022/05/17 05:46:27;;;;;;;1.98;0.55;;;20.30;99.90;;;;;;5070980;28;20220;-79
2022/05/17 05:48:58;;;;;;;3.80;0.60;;;20.30;99.90;;;;;;5066306;28;20219;-79
2022/05/17 05:51:28;;;;;;;1.52;0.50;;;20.30;99.90;;;;;;5072710;28;20588;-79
2022/05/17 05:54:01;;;;;;;2.05;0.52;;;20.30;99.90;;;;;;5062861;28;20737;-79
2022/05/17 05:56:31;;;;;;;1.55;0.40;;;20.20;99.90;;;;;;5064345;28;20189;-79
2022/05/17 05:59:02;;;;;;;2.20;0.70;;;20.10;99.90;;;;;;5065031;28;20181;-79
2022/05/17 06:01:33;;;;;;;2.25;0.60;;;20.00;99.90;;;;;;5069499;28;20640;-79
2022/05/17 06:04:03;;;;;;;1.65;0.63;;;20.00;99.90;;;;;;5063302;28;20193;-79
2022/05/17 06:06:35;;;;;;;2.35;0.57;;;19.90;99.90;;;;;;5058866;28;20188;-79
2022/05/17 06:09:08;;;;;;;3.58;0.50;;;19.90;99.90;;;;;;5070297;28;20228;-79
2022/05/17 06:11:38;;;;;;;1.80;0.60;;;19.90;99.90;;;;;;5057420;28;20193;-79
2022/05/17 06:14:09;;;;;;;1.50;0.55;;;20.00;99.90;;;;;;5059330;28;20201;-79
2022/05/17 06:16:39;;;;;;;1.13;0.52;;;20.00;99.90;;;;;;5055759;28;20251;-79
2022/05/17 06:19:10;;;;;;;2.25;0.80;;;20.00;99.90;;;;;;5052966;28;20190;-79
2022/05/17 06:21:41;;;;;;;1.05;0.40;;;20.00;99.90;;;;;;5056383;28;20262;-79
2022/05/17 06:24:13;;;;;;;1.10;0.70;;;19.90;99.90;;;;;;5063199;28;20197;-79
2022/05/17 06:26:44;;;;;;;2.88;0.90;;;19.90;99.90;;;;;;5062253;28;20239;-79
2022/05/17 06:29:14;;;;;;;4.55;0.60;;;19.80;99.90;;;;;;5063982;28;20238;-79
2022/05/17 06:31:45;;;;;;;1.83;0.60;;;19.80;99.90;;;;;;5059689;28;20192;-79
2022/05/17 06:34:16;;;;;;;3.35;0.82;;;19.80;99.90;;;;;;5056542;28;20251;-79
2022/05/17 06:36:46;;;;;;;2.47;0.68;;;19.80;99.90;;;;;;5064914;28;20255;-79
2022/05/17 06:39:19;;;;;;;3.47;0.80;;;19.80;99.90;;;;;;5052936;28;20193;-79
2022/05/17 06:41:51;;;;;;;2.95;0.98;;;19.70;99.90;;;;;;5058049;28;21039;-79
2022/05/17 06:44:21;;;;;;;2.53;0.80;;;19.60;99.90;;;;;;5064577;28;20189;-80
2022/05/17 06:46:52;;;;;;;3.72;0.80;;;19.60;99.90;;;;;;5060253;28;20200;-79
2022/05/17 06:49:23;;;;;;;4.72;0.90;;;19.50;99.90;;;;;;5060829;28;20236;-79
2022/05/17 06:51:54;;;;;;;2.15;0.95;;;19.40;99.90;;;;;;5068093;28;20284;-79
2022/05/17 06:54:26;;;;;;;1.92;0.68;;;19.30;99.90;;;;;;5056923;28;20201;-80
2022/05/17 06:56:57;;;;;;;2.58;0.60;;;19.20;99.90;;;;;;5062901;28;20643;-79
2022/05/17 06:59:27;;;;;;;0.98;0.60;;;19.00;99.90;;;;;;5065476;28;20219;-79
2022/05/17 07:01:59;;;;;;;1.90;0.60;;;18.90;99.90;;;;;;5059746;28;20204;-79
2022/05/17 07:04:30;;;;;;;3.90;0.90;;;18.70;99.90;;;;;;5061942;28;20653;-80
2022/05/17 07:07:01;;;;;;;3.17;0.75;;;18.50;99.90;;;;;;5067844;28;20196;-80
2022/05/17 07:09:34;;;;;;;2.05;0.70;;;18.40;99.90;;;;;;5063317;28;20230;-80
2022/05/17 07:14:51;;;;;;;1.67;0.90;;;18.10;99.90;;;;;;5067700;28;20226;-80
2022/05/17 07:17:24;;;;;;;2.42;0.90;;;18.00;99.90;;;;;;5056819;28;20205;-80
2022/05/17 07:19:55;;;;;;;3.00;0.93;;;17.90;99.90;;;;;;5061004;28;20688;-81
2022/05/17 07:22:26;;;;;;;1.30;0.70;;;17.90;99.90;;;;;;5061280;28;20201;-80
2022/05/17 07:24:59;;;;;;;2.53;0.93;;;17.80;99.90;;;;;;5062311;28;20307;-80
2022/05/17 07:27:29;;;;;;;2.53;0.93;;;17.80;99.90;;;;;;5058553;28;20189;-80
2022/05/17 07:30:00;;;;;;;1.77;0.77;;;17.70;99.90;;;;;;5064952;28;20251;-79
2022/05/17 07:32:30;;;;;;;1.35;1.00;;;17.60;99.90;;;;;;5057591;28;20208;-81
2022/05/17 07:35:01;;;;;;;32.53;22.52;;;17.60;99.90;;;;;;5061585;28;20200;-80
2022/05/17 07:37:32;;;;;;;8.63;5.50;;;17.50;99.90;;;;;;5064956;28;20198;-79
2022/05/17 07:40:05;;;;;;;5.32;2.53;;;17.50;99.90;;;;;;5061244;28;20193;-79
2022/05/17 07:42:36;;;;;;;2.67;1.20;;;17.40;99.90;;;;;;5070146;28;20205;-80
2022/05/17 07:45:07;;;;;;;3.20;1.25;;;17.30;99.90;;;;;;5061727;28;20214;-80
2022/05/17 07:47:38;;;;;;;3.53;1.65;;;17.30;99.90;;;;;;5068468;28;20228;-80
2022/05/17 07:50:09;;;;;;;21.13;17.67;;;17.20;99.90;;;;;;5063413;28;20193;-80
2022/05/17 07:52:41;;;;;;;5.82;4.18;;;17.20;99.90;;;;;;5059461;28;20273;-80
2022/05/17 07:55:14;;;;;;;3.20;1.40;;;17.20;99.90;;;;;;5059491;28;20595;-79
2022/05/17 07:57:45;;;;;;;7.28;1.70;;;17.10;99.90;;;;;;5057851;28;20201;-79
2022/05/17 08:00:16;;;;;;;3.00;1.52;;;17.00;99.90;;;;;;5065150;28;20242;-79
2022/05/17 08:02:47;;;;;;;5.07;1.70;;;17.00;99.90;;;;;;5067704;28;20664;-80
2022/05/17 08:05:18;;;;;;;5.22;2.60;;;17.00;99.90;;;;;;5072409;28;20254;-80
2022/05/17 08:07:49;;;;;;;6.07;3.00;;;17.00;99.90;;;;;;5064439;28;20197;-79
2022/05/17 08:10:22;;;;;;;12.82;8.45;;;16.90;99.90;;;;;;5066131;28;20198;-82
2022/05/17 08:12:53;;;;;;;6.45;3.72;;;16.90;99.90;;;;;;5065569;28;20197;-80
2022/05/17 08:15:25;;;;;;;6.10;3.25;;;17.00;99.90;;;;;;5066966;28;20657;-80
2022/05/17 08:17:56;;;;;;;7.20;2.97;;;16.90;99.90;;;;;;5059631;28;20197;-79
2022/05/17 08:20:26;;;;;;;1.85;1.35;;;17.00;99.90;;;;;;5066602;28;20251;-79
2022/05/17 08:22:57;;;;;;;2.38;1.00;;;17.00;99.90;;;;;;5059383;28;20202;-79
2022/05/17 08:28:17;;;;;;;2.65;1.20;;;17.00;99.90;;;;;;5063726;28;20227;-80
2022/05/17 08:30:48;;;;;;;2.65;1.23;;;17.10;99.90;;;;;;5059431;28;20229;-79
2022/05/17 08:33:23;;;;;;;2.83;1.30;;;17.00;99.90;;;;;;5069974;28;20723;-80
2022/05/17 08:35:55;;;;;;;4.90;1.30;;;17.00;99.90;;;;;;5069146;28;20194;-80
2022/05/17 08:38:27;;;;;;;4.63;1.13;;;17.00;99.90;;;;;;5065368;28;20260;-79
2022/05/17 08:41:14;;;;;;;3.03;1.20;;;17.00;99.90;;;;;;5057246;28;20198;-80
2022/05/17 08:43:53;;;;;;;2.42;1.30;;;17.00;99.90;;;;;;5062124;28;20657;-79
2022/05/17 08:46:51;;;;;;;2.80;1.30;;;17.10;99.90;;;;;;5054990;28;20693;-80
2022/05/17 08:49:25;;;;;;;5.72;1.50;;;17.00;99.90;;;;;;5070571;28;20270;-80
2022/05/17 08:51:58;;;;;;;5.32;1.45;;;17.10;99.90;;;;;;5062084;28;20197;-80
2022/05/17 08:54:31;;;;;;;4.03;1.50;;;17.00;99.90;;;;;;5064519;28;20581;-80
2022/05/17 08:57:09;;;;;;;2.60;1.60;;;17.00;99.90;;;;;;5059163;28;20540;-79
2022/05/17 08:59:41;;;;;;;3.20;1.40;;;16.90;99.90;;;;;;5061663;28;20238;-80
2022/05/17 09:02:17;;;;;;;2.72;1.70;;;16.90;99.90;;;;;;5061212;28;20197;-80
2022/05/17 09:05:06;;;;;;;3.75;1.60;;;16.80;99.90;;;;;;5066557;28;20182;-80
2022/05/17 09:07:46;;;;;;;4.53;1.58;;;16.80;99.90;;;;;;5062456;28;20200;-80
2022/05/17 09:10:26;;;;;;;4.18;1.98;;;16.60;99.90;;;;;;5054223;28;20216;-80
2022/05/17 09:13:04;;;;;;;3.83;2.22;;;16.50;99.90;;;;;;5058523;28;20193;-80
2022/05/17 09:15:35;;;;;;;6.20;3.70;;;16.30;99.90;;;;;;5064705;28;20197;-81
2022/05/17 09:18:09;;;;;;;8.32;2.97;;;16.20;99.90;;;;;;5064725;28;20247;-80
2022/05/17 09:20:41;;;;;;;6.65;4.18;;;16.10;99.90;;;;;;5054199;28;20205;-80
2022/05/17 09:23:12;;;;;;;6.63;2.97;;;16.00;99.90;;;;;;5070064;28;20208;-81
2022/05/17 09:26:06;;;;;;;3.80;2.55;;;15.90;99.90;;;;;;5062256;28;20217;-82
2022/05/17 09:28:55;;;;;;;5.25;2.33;;;15.80;99.90;;;;;;5063843;28;20672;-80
2022/05/17 09:31:32;;;;;;;4.63;1.60;;;15.60;99.90;;;;;;5065690;28;20213;-81
2022/05/17 09:34:05;;;;;;;2.85;1.30;;;15.60;99.90;;;;;;5064432;28;20193;-80
2022/05/17 09:36:55;;;;;;;2.90;1.50;;;15.50;99.90;;;;;;5057847;28;20258;-80
2022/05/17 09:39:27;;;;;;;3.53;1.27;;;15.40;99.90;;;;;;5058227;28;20209;-80
2022/05/17 09:42:03;;;;;;;4.00;1.67;;;15.40;99.90;;;;;;5069870;28;20272;-80
2022/05/17 09:44:41;;;;;;;3.88;1.50;;;15.30;99.90;;;;;;5058340;28;20672;-80
2022/05/17 09:47:22;;;;;;;6.32;1.75;;;15.20;99.90;;;;;;5065317;28;20216;-80
2022/05/17 09:52:44;;;;;;;3.35;1.70;;;15.20;99.90;;;;;;5058264;28;20274;-80
2022/05/17 09:55:21;;;;;;;5.55;2.60;;;15.10;99.90;;;;;;5057360;28;20247;-80
2022/05/17 09:58:03;;;;;;;9.02;5.30;;;15.00;99.90;;;;;;5062752;28;20201;-80
2022/05/17 10:00:41;;;;;;;9.70;5.18;;;15.00;99.90;;;;;;5065264;28;20202;-80
2022/05/17 10:03:30;;;;;;;11.45;6.10;;;15.00;99.90;;;;;;5066680;28;20203;-80
2022/05/17 10:06:03;;;;;;;8.05;5.20;;;15.00;99.90;;;;;;5064660;28;20704;-80
2022/05/17 10:08:39;;;;;;;7.88;3.90;;;14.90;99.90;;;;;;5062086;28;20225;-80
2022/05/17 10:11:22;;;;;;;5.97;3.08;;;15.00;99.90;;;;;;5059611;28;20192;-80
2022/05/17 10:14:09;;;;;;;7.18;2.75;;;14.90;99.90;;;;;;5053482;28;20182;-80
2022/05/17 10:16:47;;;;;;;5.57;2.45;;;14.80;99.90;;;;;;5055448;28;20272;-80
2022/05/17 10:19:38;;;;;;;7.15;2.45;;;14.80;99.90;;;;;;5064845;28;20604;-80
2022/05/17 10:22:17;;;;;;;8.40;2.70;;;14.80;99.90;;;;;;5065764;28;20189;-80
2022/05/17 10:24:52;;;;;;;7.15;2.55;;;14.80;99.90;;;;;;5061367;28;20197;-80
2022/05/17 10:27:28;;;;;;;4.78;2.38;;;14.70;99.90;;;;;;5067931;28;20205;-80
2022/05/17 10:30:03;;;;;;;5.18;2.53;;;14.70;99.90;;;;;;5067114;28;20185;-80
2022/05/17 10:32:40;;;;;;;5.78;2.70;;;14.70;99.90;;;;;;5059038;28;20671;-80
2022/05/17 10:35:18;;;;;;;4.72;2.50;;;14.60;99.90;;;;;;5056517;28;20634;-80
2022/05/17 10:37:52;;;;;;;4.57;2.17;;;14.60;99.90;;;;;;5060173;28;20284;-80
2022/05/17 10:40:27;;;;;;;4.65;2.22;;;14.60;99.90;;;;;;5061595;28;20239;-81
2022/05/17 10:42:59;;;;;;;6.15;2.30;;;14.60;99.90;;;;;;5065680;28;20249;-80
2022/05/17 10:45:35;;;;;;;6.72;2.42;;;14.60;99.90;;;;;;5064798;28;20186;-81
2022/05/17 10:48:17;;;;;;;4.82;2.00;;;14.60;99.90;;;;;;5060022;28;20300;-81
2022/05/17 10:50:56;;;;;;;4.90;2.08;;;14.50;99.90;;;;;;5058728;28;20665;-80
2022/05/17 10:53:38;;;;;;;3.88;2.00;;;14.50;99.90;;;;;;5054146;28;20365;-81
2022/05/17 10:56:16;;;;;;;5.68;2.20;;;14.50;99.90;;;;;;5055593;28;20625;-80
2022/05/17 10:58:54;;;;;;;6.90;2.00;;;14.50;99.90;;;;;;5061611;28;20209;-80
2022/05/17 11:01:28;;;;;;;3.33;2.00;;;14.50;99.90;;;;;;5064811;28;20203;-80
2022/05/17 11:04:27;;;;;;;4.63;2.30;;;14.50;99.90;;;;;;5056575;28;20584;-80
2022/05/17 11:07:07;;;;;;;4.55;1.58;;;14.40;99.90;;;;;;5054959;28;20233;-80
2022/05/17 11:09:51;;;;;;;4.97;2.00;;;14.40;99.90;;;;;;5059936;28;20290;-80
2022/05/17 11:12:23;;;;;;;3.13;1.75;;;14.40;99.90;;;;;;5058743;28;20190;-80
2022/05/17 11:15:01;;;;;;;5.22;1.80;;;14.40;99.90;;;;;;5053636;28;20197;-79
2022/05/17 11:17:37;;;;;;;4.90;2.03;;;14.30;99.90;;;;;;5064708;28;20235;-79
2022/05/17 11:20:16;;;;;;;4.10;1.92;;;14.30;99.90;;;;;;5063918;28;20291;-80
2022/05/17 11:22:52;;;;;;;5.45;2.10;;;14.30;99.90;;;;;;5064023;28;20215;-80
2022/05/17 11:25:48;;;;;;;4.50;1.85;;;14.30;99.90;;;;;;5055070;28;20198;-80
2022/05/17 11:28:49;;;;;;;4.22;1.90;;;14.30;99.90;;;;;;5067802;28;20197;-80
2022/05/17 11:31:27;;;;;;;3.85;1.70;;;14.30;99.90;;;;;;5062954;28;20201;-80
2022/05/17 11:34:35;;;;;;;4.57;1.75;;;14.30;99.90;;;;;;5071474;28;20212;-80
2022/05/17 11:37:10;;;;;;;5.18;2.17;;;14.30;99.90;;;;;;5063832;28;20197;-80
2022/05/17 11:39:51;;;;;;;3.70;1.88;;;14.20;99.90;;;;;;5063151;28;20284;-80
2022/05/17 11:42:32;;;;;;;3.90;2.00;;;14.20;99.90;;;;;;5068656;28;20296;-80
2022/05/17 11:45:21;;;;;;;2.83;2.00;;;14.20;99.90;;;;;;5068113;28;20188;-80
2022/05/17 11:47:57;;;;;;;3.92;2.13;;;14.00;99.90;;;;;;5074070;28;20224;-80
2022/05/17 11:50:58;;;;;;;4.93;2.25;;;14.00;99.90;;;;;;5062446;28;20232;-80
2022/05/17 11:53:45;;;;;;;3.83;1.90;;;13.90;99.90;;;;;;5040910;28;20714;-80
2022/05/17 11:56:22;;;;;;;4.13;2.08;;;13.80;99.90;;;;;;5068006;28;20196;-79
2022/05/17 11:58:54;;;;;;;4.47;1.75;;;13.70;99.90;;;;;;5071144;28;20660;-80
2022/05/17 12:01:50;;;;;;;5.68;2.17;;;13.60;99.90;;;;;;5068406;28;20196;-81
2022/05/17 12:04:44;;;;;;;4.05;2.20;;;13.60;99.90;;;;;;5064745;28;20652;-80
2022/05/17 12:07:29;;;;;;;6.18;2.13;;;13.60;99.90;;;;;;5068214;28;20683;-82
2022/05/17 12:10:13;;;;;;;3.45;1.90;;;13.60;99.90;;;;;;5066959;28;20290;-80
2022/05/17 12:12:57;;;;;;;4.28;2.10;;;13.60;99.90;;;;;;5071932;28;20242;-80
2022/05/17 12:15:49;;;;;;;5.40;1.95;;;13.60;99.90;;;;;;5064858;28;20198;-80
2022/05/17 12:18:41;;;;;;;5.03;2.15;;;13.70;99.90;;;;;;5063014;28;20229;-79
2022/05/17 12:21:43;;;;;;;5.78;2.00;;;13.70;99.90;;;;;;5067836;28;20254;-80
2022/05/17 12:24:31;;;;;;;7.22;2.30;;;13.60;99.90;;;;;;5071221;28;20667;-80
2022/05/17 12:27:25;;;;;;;4.13;1.85;;;13.70;99.90;;;;;;5074283;28;20208;-80
2022/05/17 12:32:48;;;;;;;4.05;1.52;;;13.70;99.90;;;;;;5072849;28;20196;-80
2022/05/17 12:35:26;;;;;;;3.42;1.70;;;13.70;99.90;;;;;;5071755;28;20182;-81
2022/05/17 12:37:58;;;;;;;2.65;1.23;;;13.70;99.90;;;;;;5070509;28;20189;-80
2022/05/17 12:43:30;;;;;;;3.22;1.35;;;13.80;99.90;;;;;;5058918;28;20196;-80
2022/05/17 12:46:13;;;;;;;2.63;1.20;;;13.80;99.90;;;;;;5060888;28;20200;-82
2022/05/17 12:48:47;;;;;;;4.03;1.50;;;13.80;99.90;;;;;;5070352;28;20297;-81
2022/05/17 12:51:21;;;;;;;4.85;1.30;;;13.80;99.90;;;;;;5062882;28;20201;-80
2022/05/17 12:53:55;;;;;;;3.03;1.20;;;13.80;99.90;;;;;;5060628;28;20346;-81
2022/05/17 12:56:43;;;;;;;3.00;1.40;;;13.80;99.90;;;;;;5064290;28;20676;-80
2022/05/17 12:59:16;;;;;;;2.67;1.20;;;13.80;99.90;;;;;;5067289;28;20200;-80
2022/05/17 13:01:54;;;;;;;3.05;1.45;;;13.80;99.90;;;;;;5065565;28;20201;-80
2022/05/17 13:04:31;;;;;;;2.60;1.40;;;13.80;99.90;;;;;;5069978;28;20192;-80
2022/05/17 13:07:14;;;;;;;4.47;1.50;;;13.80;99.90;;;;;;5064709;28;20684;-80
2022/05/17 13:09:58;;;;;;;2.13;1.30;;;13.80;99.90;;;;;;5068854;28;20231;-80
2022/05/17 13:12:31;;;;;;;2.65;1.00;;;13.80;99.90;;;;;;5068190;28;20197;-80
2022/05/17 13:15:08;;;;;;;2.60;1.00;;;13.70;99.90;;;;;;5064714;28;20627;-80
2022/05/17 13:17:41;;;;;;;3.13;1.08;;;13.80;99.90;;;;;;5062569;28;20718;-80
2022/05/17 13:20:16;;;;;;;3.78;1.00;;;13.70;99.90;;;;;;5063933;28;20231;-80
2022/05/17 13:22:48;;;;;;;3.35;1.25;;;13.70;99.90;;;;;;5067333;28;20216;-82
2022/05/17 13:25:21;;;;;;;1.52;1.10;;;13.60;99.90;;;;;;5068357;28;20232;-79
2022/05/17 13:27:54;;;;;;;4.50;1.40;;;13.60;99.90;;;;;;5067814;28;20217;-80
2022/05/17 13:30:33;;;;;;;2.85;1.30;;;13.50;99.90;;;;;;5060414;28;20251;-80
2022/05/17 13:33:04;;;;;;;3.08;1.20;;;13.40;99.90;;;;;;5063427;28;20736;-81
2022/05/17 13:35:38;;;;;;;3.22;1.00;;;13.40;99.90;;;;;;5064042;28;20664;-80
2022/05/17 13:38:11;;;;;;;2.50;1.38;;;13.30;99.90;;;;;;5064664;28;20201;-81